sensor_id;sensor_type;location;lat;lon;timestamp;pressure;altitude;pressure_sealevel;temperature;humidity
32181;BME280;19172;51.504;3.894;2022-10-17T00:00:59;101298.56;;;22.31;100.00
32181;BME280;19172;51.504;3.894;2022-10-17T00:03:27;101295.66;;;22.37;100.00
32181;BME280;19172;51.504;3.894;2022-10-17T00:05:55;101296.06;;;22.26;100.00
32181;BME280;19172;51.504;3.894;2022-10-17T00:08:23;101301.28;;;22.31;100.00
32181;BME280;19172;51.504;3.894;2022-10-17T00:11:05;101298.78;;;22.26;100.00
32181;BME280;19172;51.504;3.894;2022-10-17T00:13:34;101299.34;;;21.86;100.00
32181;BME280;19172;51.504;3.894;2022-10-17T00:16:01;101303.44;;;22.21;100.00
32181;BME280;19172;51.504;3.894;2022-10-17T00:18:29;101302.47;;;22.24;100.00
32181;BME280;19172;51.504;3.894;2022-10-17T00:20:57;101296.94;;;22.03;100.00
32181;BME280;19172;51.504;3.894;2022-10-17T00:23:25;101299.13;;;22.17;100.00
32181;BME280;19172;51.504;3.894;2022-10-17T00:25:59;101285.59;;;22.19;100.00
32181;BME280;19172;51.504;3.894;2022-10-17T00:28:27;101288.50;;;22.12;100.00
32181;BME280;19172;51.504;3.894;2022-10-17T00:31:02;101289.75;;;22.27;100.00
32181;BME280;19172;51.504;3.894;2022-10-17T00:33:32;101281.59;;;22.29;100.00
32181;BME280;19172;51.504;3.894;2022-10-17T00:36:15;101285.81;;;22.12;100.00
32181;BME280;19172;51.504;3.894;2022-10-17T00:38:45;101287.59;;;22.13;100.00
32181;BME280;19172;51.504;3.894;2022-10-17T00:41:15;101280.84;;;22.02;100.00
32181;BME280;19172;51.504;3.894;2022-10-17T00:46:54;101275.16;;;22.09;100.00
32181;BME280;19172;51.504;3.894;2022-10-17T00:49:26;101286.47;;;22.19;100.00
32181;BME280;19172;51.504;3.894;2022-10-17T00:52:04;101289.41;;;22.36;100.00
32181;BME280;19172;51.504;3.894;2022-10-17T00:54:38;101300.69;;;22.23;100.00
32181;BME280;19172;51.504;3.894;2022-10-17T00:57:07;101298.16;;;22.41;100.00
32181;BME280;19172;51.504;3.894;2022-10-17T00:59:38;101305.50;;;22.38;100.00
32181;BME280;19172;51.504;3.894;2022-10-17T01:02:11;101296.22;;;22.45;100.00
32181;BME280;19172;51.504;3.894;2022-10-17T01:04:43;101305.84;;;22.29;100.00
32181;BME280;19172;51.504;3.894;2022-10-17T01:07:12;101300.75;;;22.44;100.00
32181;BME280;19172;51.504;3.894;2022-10-17T01:09:42;101301.47;;;22.49;100.00
32181;BME280;19172;51.504;3.894;2022-10-17T01:12:23;101297.56;;;22.56;100.00
32181;BME280;19172;51.504;3.894;2022-10-17T01:32:13;101279.16;;;22.89;100.00
32181;BME280;19172;51.504;3.894;2022-10-17T01:34:47;101271.16;;;22.88;100.00
32181;BME280;19172;51.504;3.894;2022-10-17T01:37:32;101271.75;;;22.94;100.00
32181;BME280;19172;51.504;3.894;2022-10-17T01:45:32;101270.97;;;22.71;100.00
32181;BME280;19172;51.504;3.894;2022-10-17T01:48:13;101267.09;;;22.78;100.00
32181;BME280;19172;51.504;3.894;2022-10-17T01:50:53;101263.69;;;22.73;100.00
32181;BME280;19172;51.504;3.894;2022-10-17T01:53:30;101268.31;;;22.69;100.00
32181;BME280;19172;51.504;3.894;2022-10-17T01:56:03;101277.25;;;22.71;100.00
32181;BME280;19172;51.504;3.894;2022-10-17T01:58:52;101250.69;;;22.82;100.00
32181;BME280;19172;51.504;3.894;2022-10-17T02:01:25;101262.56;;;22.78;100.00
32181;BME280;19172;51.504;3.894;2022-10-17T02:03:57;101261.34;;;22.85;100.00
32181;BME280;19172;51.504;3.894;2022-10-17T02:06:27;101256.34;;;22.76;100.00
32181;BME280;19172;51.504;3.894;2022-10-17T02:08:56;101259.38;;;22.69;100.00
32181;BME280;19172;51.504;3.894;2022-10-17T02:11:25;101252.00;;;22.72;100.00
32181;BME280;19172;51.504;3.894;2022-10-17T02:17:26;101269.84;;;22.53;100.00
32181;BME280;19172;51.504;3.894;2022-10-17T02:23:10;101273.28;;;22.56;100.00
32181;BME280;19172;51.504;3.894;2022-10-17T02:25:58;101276.50;;;22.67;100.00
32181;BME280;19172;51.504;3.894;2022-10-17T02:31:21;101274.66;;;22.68;100.00
32181;BME280;19172;51.504;3.894;2022-10-17T02:34:00;101267.84;;;22.81;100.00
32181;BME280;19172;51.504;3.894;2022-10-17T02:36:35;101266.88;;;22.82;100.00
32181;BME280;19172;51.504;3.894;2022-10-17T02:39:07;101268.22;;;22.94;100.00
32181;BME280;19172;51.504;3.894;2022-10-17T02:41:38;101266.56;;;22.90;100.00
32181;BME280;19172;51.504;3.894;2022-10-17T02:44:08;101269.53;;;22.84;100.00
32181;BME280;19172;51.504;3.894;2022-10-17T02:46:39;101271.16;;;22.88;100.00
32181;BME280;19172;51.504;3.894;2022-10-17T02:49:16;101269.53;;;22.84;100.00
32181;BME280;19172;51.504;3.894;2022-10-17T02:54:45;101294.72;;;22.83;100.00
32181;BME280;19172;51.504;3.894;2022-10-17T02:57:23;101283.94;;;22.83;100.00
32181;BME280;19172;51.504;3.894;2022-10-17T02:59:55;101282.13;;;22.83;100.00
32181;BME280;19172;51.504;3.894;2022-10-17T03:02:24;101289.28;;;22.84;100.00
32181;BME280;19172;51.504;3.894;2022-10-17T03:04:51;101279.84;;;22.73;100.00
32181;BME280;19172;51.504;3.894;2022-10-17T03:07:19;101274.16;;;22.80;100.00
32181;BME280;19172;51.504;3.894;2022-10-17T03:09:47;101272.09;;;22.87;100.00
32181;BME280;19172;51.504;3.894;2022-10-17T03:12:15;101284.50;;;22.69;100.00
32181;BME280;19172;51.504;3.894;2022-10-17T03:14:43;101288.41;;;22.84;100.00
32181;BME280;19172;51.504;3.894;2022-10-17T03:17:11;101288.03;;;22.71;100.00
32181;BME280;19172;51.504;3.894;2022-10-17T03:19:39;101289.28;;;22.84;100.00
32181;BME280;19172;51.504;3.894;2022-10-17T03:22:08;101304.97;;;22.75;100.00
32181;BME280;19172;51.504;3.894;2022-10-17T03:24:37;101322.13;;;22.72;100.00
32181;BME280;19172;51.504;3.894;2022-10-17T03:27:05;101327.03;;;22.84;100.00
32181;BME280;19172;51.504;3.894;2022-10-17T03:29:33;101320.84;;;22.59;100.00
32181;BME280;19172;51.504;3.894;2022-10-17T03:32:03;101306.78;;;22.74;100.00
32181;BME280;19172;51.504;3.894;2022-10-17T03:34:31;101305.75;;;22.77;100.00
32181;BME280;19172;51.504;3.894;2022-10-17T03:36:59;101310.72;;;22.87;100.00
32181;BME280;19172;51.504;3.894;2022-10-17T03:39:28;101303.06;;;22.98;100.00
32181;BME280;19172;51.504;3.894;2022-10-17T03:41:56;101304.56;;;23.05;100.00
32181;BME280;19172;51.504;3.894;2022-10-17T03:44:24;101305.72;;;23.00;100.00
32181;BME280;19172;51.504;3.894;2022-10-17T03:46:52;101317.50;;;22.06;100.00
32181;BME280;19172;51.504;3.894;2022-10-17T03:49:20;101310.91;;;22.83;100.00
32181;BME280;19172;51.504;3.894;2022-10-17T03:51:47;101311.28;;;22.95;100.00
32181;BME280;19172;51.504;3.894;2022-10-17T03:54:17;101318.94;;;23.06;100.00
32181;BME280;19172;51.504;3.894;2022-10-17T03:56:45;101309.44;;;23.17;100.00
32181;BME280;19172;51.504;3.894;2022-10-17T03:59:17;101311.34;;;23.15;100.00
32181;BME280;19172;51.504;3.894;2022-10-17T04:01:53;101310.50;;;23.13;100.00
32181;BME280;19172;51.504;3.894;2022-10-17T04:04:21;101311.59;;;23.09;100.00
32181;BME280;19172;51.504;3.894;2022-10-17T04:06:50;101309.69;;;23.11;100.00
32181;BME280;19172;51.504;3.894;2022-10-17T04:09:17;101317.47;;;23.19;100.00
32181;BME280;19172;51.504;3.894;2022-10-17T04:11:55;101317.16;;;23.05;100.00
32181;BME280;19172;51.504;3.894;2022-10-17T04:14:23;101313.28;;;23.12;100.00
32181;BME280;19172;51.504;3.894;2022-10-17T04:16:51;101319.47;;;23.14;100.00
32181;BME280;19172;51.504;3.894;2022-10-17T04:19:21;101327.16;;;23.03;100.00
32181;BME280;19172;51.504;3.894;2022-10-17T04:21:50;101320.22;;;23.17;100.00
32181;BME280;19172;51.504;3.894;2022-10-17T04:24:19;101328.94;;;23.24;100.00
32181;BME280;19172;51.504;3.894;2022-10-17T04:26:53;101334.44;;;23.23;100.00
32181;BME280;19172;51.504;3.894;2022-10-17T04:29:24;101328.00;;;23.25;100.00
32181;BME280;19172;51.504;3.894;2022-10-17T04:31:58;101326.56;;;23.38;100.00
32181;BME280;19172;51.504;3.894;2022-10-17T04:34:39;101333.19;;;23.30;100.00
32181;BME280;19172;51.504;3.894;2022-10-17T04:37:07;101335.44;;;22.98;100.00
32181;BME280;19172;51.504;3.894;2022-10-17T04:39:35;101330.75;;;23.24;100.00
32181;BME280;19172;51.504;3.894;2022-10-17T04:42:03;101343.38;;;23.23;100.00
32181;BME280;19172;51.504;3.894;2022-10-17T04:44:31;101352.03;;;23.31;100.00
32181;BME280;19172;51.504;3.894;2022-10-17T04:47:00;101348.47;;;23.31;100.00
32181;BME280;19172;51.504;3.894;2022-10-17T04:49:28;101354.38;;;23.40;100.00
32181;BME280;19172;51.504;3.894;2022-10-17T04:52:05;101348.19;;;23.37;100.00
32181;BME280;19172;51.504;3.894;2022-10-17T04:54:42;101348.72;;;23.46;100.00
32181;BME280;19172;51.504;3.894;2022-10-17T04:57:12;101349.72;;;23.44;100.00
32181;BME280;19172;51.504;3.894;2022-10-17T04:59:43;101354.88;;;23.50;100.00
32181;BME280;19172;51.504;3.894;2022-10-17T05:02:18;101346.09;;;23.45;100.00
32181;BME280;19172;51.504;3.894;2022-10-17T05:04:46;101348.66;;;23.48;100.00
32181;BME280;19172;51.504;3.894;2022-10-17T05:07:15;101358.88;;;23.40;100.00
32181;BME280;19172;51.504;3.894;2022-10-17T05:10:03;101373.94;;;23.24;100.00
32181;BME280;19172;51.504;3.894;2022-10-17T05:12:33;101359.88;;;23.37;100.00
32181;BME280;19172;51.504;3.894;2022-10-17T05:15:01;101369.06;;;23.11;100.00
32181;BME280;19172;51.504;3.894;2022-10-17T05:17:30;101344.34;;;23.22;100.00
32181;BME280;19172;51.504;3.894;2022-10-17T05:19:57;101341.06;;;23.14;100.00
32181;BME280;19172;51.504;3.894;2022-10-17T05:22:25;101343.44;;;23.22;100.00
32181;BME280;19172;51.504;3.894;2022-10-17T05:24:56;101343.75;;;23.14;100.00
32181;BME280;19172;51.504;3.894;2022-10-17T05:27:23;101341.28;;;23.09;100.00
32181;BME280;19172;51.504;3.894;2022-10-17T05:29:51;101335.34;;;23.22;100.00
32181;BME280;19172;51.504;3.894;2022-10-17T05:32:25;101355.50;;;23.35;100.00
32181;BME280;19172;51.504;3.894;2022-10-17T05:34:53;101349.28;;;23.54;100.00
32181;BME280;19172;51.504;3.894;2022-10-17T05:37:22;101334.91;;;23.32;100.00
32181;BME280;19172;51.504;3.894;2022-10-17T05:39:52;101350.53;;;23.46;100.00
32181;BME280;19172;51.504;3.894;2022-10-17T05:42:20;101352.97;;;23.52;100.00
32181;BME280;19172;51.504;3.894;2022-10-17T05:44:48;101353.94;;;23.51;100.00
32181;BME280;19172;51.504;3.894;2022-10-17T05:47:18;101349.88;;;23.39;100.00
32181;BME280;19172;51.504;3.894;2022-10-17T05:49:46;101356.50;;;23.54;100.00
32181;BME280;19172;51.504;3.894;2022-10-17T05:52:21;101348.66;;;23.48;100.00
32181;BME280;19172;51.504;3.894;2022-10-17T05:55:11;101365.13;;;23.62;100.00
32181;BME280;19172;51.504;3.894;2022-10-17T05:57:40;101369.78;;;23.58;100.00
32181;BME280;19172;51.504;3.894;2022-10-17T06:00:14;101374.00;;;23.22;100.00
32181;BME280;19172;51.504;3.894;2022-10-17T06:02:43;101383.75;;;23.48;100.00
32181;BME280;19172;51.504;3.894;2022-10-17T06:05:14;101381.19;;;23.45;100.00
32181;BME280;19172;51.504;3.894;2022-10-17T06:07:42;101368.72;;;23.62;100.00
32181;BME280;19172;51.504;3.894;2022-10-17T06:10:10;101360.53;;;23.44;100.00
32181;BME280;19172;51.504;3.894;2022-10-17T06:12:43;101372.97;;;23.68;100.00
32181;BME280;19172;51.504;3.894;2022-10-17T06:15:12;101378.56;;;23.84;100.00
32181;BME280;19172;51.504;3.894;2022-10-17T06:17:42;101376.91;;;23.61;100.00
32181;BME280;19172;51.504;3.894;2022-10-17T06:20:10;101391.00;;;23.67;100.00
32181;BME280;19172;51.504;3.894;2022-10-17T06:22:38;101403.84;;;23.83;100.00
32181;BME280;19172;51.504;3.894;2022-10-17T06:25:12;101399.47;;;23.80;100.00
32181;BME280;19172;51.504;3.894;2022-10-17T06:27:40;101410.78;;;23.88;100.00
32181;BME280;19172;51.504;3.894;2022-10-17T06:30:08;101409.56;;;23.75;100.00
32181;BME280;19172;51.504;3.894;2022-10-17T06:32:36;101421.28;;;23.74;100.00
32181;BME280;19172;51.504;3.894;2022-10-17T06:35:05;101438.59;;;23.70;100.00
32181;BME280;19172;51.504;3.894;2022-10-17T06:37:33;101456.31;;;23.55;100.00
32181;BME280;19172;51.504;3.894;2022-10-17T06:40:04;101479.03;;;23.50;100.00
32181;BME280;19172;51.504;3.894;2022-10-17T06:42:34;101501.63;;;23.69;100.00
32181;BME280;19172;51.504;3.894;2022-10-17T06:45:24;101518.72;;;23.48;100.00
32181;BME280;19172;51.504;3.894;2022-10-17T06:48:07;101530.81;;;23.14;100.00
32181;BME280;19172;51.504;3.894;2022-10-17T06:50:51;101534.63;;;23.09;100.00
32181;BME280;19172;51.504;3.894;2022-10-17T06:53:27;101551.09;;;23.01;100.00
32181;BME280;19172;51.504;3.894;2022-10-17T06:56:14;101562.75;;;23.02;100.00
32181;BME280;19172;51.504;3.894;2022-10-17T06:58:47;101575.66;;;22.94;100.00
32181;BME280;19172;51.504;3.894;2022-10-17T07:01:26;101562.47;;;23.09;100.00
32181;BME280;19172;51.504;3.894;2022-10-17T07:03:57;101558.72;;;22.90;100.00
32181;BME280;19172;51.504;3.894;2022-10-17T07:06:28;101568.81;;;22.59;100.00
32181;BME280;19172;51.504;3.894;2022-10-17T07:08:58;101573.50;;;22.79;100.00
32181;BME280;19172;51.504;3.894;2022-10-17T07:11:29;101555.91;;;23.16;100.00
32181;BME280;19172;51.504;3.894;2022-10-17T07:13:57;101562.84;;;23.00;100.00
32181;BME280;19172;51.504;3.894;2022-10-17T07:16:25;101583.31;;;22.81;100.00
32181;BME280;19172;51.504;3.894;2022-10-17T07:19:02;101595.56;;;23.14;100.00
32181;BME280;19172;51.504;3.894;2022-10-17T07:21:34;101591.00;;;23.16;100.00
32181;BME280;19172;51.504;3.894;2022-10-17T07:24:05;101595.34;;;23.44;100.00
32181;BME280;19172;51.504;3.894;2022-10-17T07:26:34;101607.47;;;23.09;100.00
32181;BME280;19172;51.504;3.894;2022-10-17T07:29:02;101612.34;;;23.46;100.00
32181;BME280;19172;51.504;3.894;2022-10-17T07:31:37;101630.13;;;23.28;100.00
32181;BME280;19172;51.504;3.894;2022-10-17T07:34:05;101615.28;;;23.16;100.00
32181;BME280;19172;51.504;3.894;2022-10-17T07:36:32;101578.00;;;23.51;100.00
32181;BME280;19172;51.504;3.894;2022-10-17T07:39:03;101605.91;;;23.50;100.00
32181;BME280;19172;51.504;3.894;2022-10-17T07:41:32;101616.94;;;23.67;100.00
32181;BME280;19172;51.504;3.894;2022-10-17T07:44:00;101612.13;;;23.29;100.00
32181;BME280;19172;51.504;3.894;2022-10-17T07:46:35;101610.91;;;23.36;100.00
32181;BME280;19172;51.504;3.894;2022-10-17T07:49:03;101620.75;;;23.38;100.00
32181;BME280;19172;51.504;3.894;2022-10-17T07:51:30;101622.38;;;23.42;100.00
32181;BME280;19172;51.504;3.894;2022-10-17T07:53:58;101602.84;;;23.59;100.00
32181;BME280;19172;51.504;3.894;2022-10-17T07:56:26;101615.34;;;23.61;100.00
32181;BME280;19172;51.504;3.894;2022-10-17T07:58:54;101610.25;;;23.77;100.00
32181;BME280;19172;51.504;3.894;2022-10-17T08:01:23;101582.97;;;23.83;100.00
32181;BME280;19172;51.504;3.894;2022-10-17T08:03:52;101558.81;;;23.80;100.00
32181;BME280;19172;51.504;3.894;2022-10-17T08:06:20;101568.38;;;23.87;100.00
32181;BME280;19172;51.504;3.894;2022-10-17T08:08:48;101578.94;;;23.93;100.00
32181;BME280;19172;51.504;3.894;2022-10-17T08:11:16;101573.34;;;23.98;100.00
32181;BME280;19172;51.504;3.894;2022-10-17T08:13:43;101579.97;;;24.12;100.00
32181;BME280;19172;51.504;3.894;2022-10-17T08:16:12;101591.22;;;24.23;100.00
32181;BME280;19172;51.504;3.894;2022-10-17T08:18:41;101592.16;;;24.22;100.00
32181;BME280;19172;51.504;3.894;2022-10-17T08:21:11;101602.66;;;24.30;100.00
32181;BME280;19172;51.504;3.894;2022-10-17T08:23:40;101618.66;;;24.35;100.00
32181;BME280;19172;51.504;3.894;2022-10-17T08:26:09;101624.97;;;24.13;100.00
32181;BME280;19172;51.504;3.894;2022-10-17T08:28:39;101622.25;;;24.13;100.00
32181;BME280;19172;51.504;3.894;2022-10-17T08:31:10;101625.69;;;24.18;100.00
32181;BME280;19172;51.504;3.894;2022-10-17T08:33:38;101624.34;;;23.84;100.00
32181;BME280;19172;51.504;3.894;2022-10-17T08:36:07;101629.28;;;23.96;100.00
32181;BME280;19172;51.504;3.894;2022-10-17T08:38:36;101632.91;;;23.95;100.00
32181;BME280;19172;51.504;3.894;2022-10-17T08:41:24;101629.16;;;23.99;100.00
32181;BME280;19172;51.504;3.894;2022-10-17T08:46:41;101637.59;;;24.13;100.00
32181;BME280;19172;51.504;3.894;2022-10-17T08:49:18;101639.78;;;24.25;100.00
32181;BME280;19172;51.504;3.894;2022-10-17T08:51:57;101645.03;;;24.06;100.00
32181;BME280;19172;51.504;3.894;2022-10-17T08:54:43;101654.16;;;24.04;100.00
32181;BME280;19172;51.504;3.894;2022-10-17T08:57:16;101662.47;;;23.99;100.00
32181;BME280;19172;51.504;3.894;2022-10-17T08:59:49;101669.94;;;23.93;100.00
32181;BME280;19172;51.504;3.894;2022-10-17T09:05:23;101696.41;;;23.83;100.00
32181;BME280;19172;51.504;3.894;2022-10-17T09:10:51;101689.69;;;23.93;100.00
32181;BME280;19172;51.504;3.894;2022-10-17T09:19:22;101711.78;;;23.81;100.00
32181;BME280;19172;51.504;3.894;2022-10-17T09:22:12;101717.78;;;23.89;100.00
32181;BME280;19172;51.504;3.894;2022-10-17T09:24:54;101724.59;;;23.99;100.00
32181;BME280;19172;51.504;3.894;2022-10-17T09:27:26;101733.50;;;23.78;100.00
32181;BME280;19172;51.504;3.894;2022-10-17T09:30:24;101727.50;;;23.47;100.00
32181;BME280;19172;51.504;3.894;2022-10-17T09:35:46;101732.34;;;23.85;100.00
32181;BME280;19172;51.504;3.894;2022-10-17T09:38:17;101734.69;;;23.94;100.00
32181;BME280;19172;51.504;3.894;2022-10-17T09:40:58;101745.50;;;23.94;100.00
32181;BME280;19172;51.504;3.894;2022-10-17T09:43:27;101750.22;;;23.89;100.00
32181;BME280;19172;51.504;3.894;2022-10-17T09:46:12;101753.19;;;23.82;100.00
32181;BME280;19172;51.504;3.894;2022-10-17T09:48:54;101741.91;;;23.94;100.00
32181;BME280;19172;51.504;3.894;2022-10-17T09:51:24;101751.59;;;23.76;100.00
32181;BME280;19172;51.504;3.894;2022-10-17T09:54:02;101749.72;;;23.78;100.00
32181;BME280;19172;51.504;3.894;2022-10-17T09:59:33;101768.50;;;23.58;100.00
32181;BME280;19172;51.504;3.894;2022-10-17T10:07:38;101780.28;;;23.80;100.00
32181;BME280;19172;51.504;3.894;2022-10-17T10:10:23;101778.38;;;23.82;100.00
32181;BME280;19172;51.504;3.894;2022-10-17T10:13:16;101792.16;;;23.75;100.00
32181;BME280;19172;51.504;3.894;2022-10-17T10:15:49;101790.75;;;23.40;100.00
32181;BME280;19172;51.504;3.894;2022-10-17T10:18:35;101801.34;;;23.70;100.00
32181;BME280;19172;51.504;3.894;2022-10-17T10:23:30;101799.44;;;23.73;100.00
32181;BME280;19172;51.504;3.894;2022-10-17T10:26:03;101802.84;;;23.54;100.00
32181;BME280;19172;51.504;3.894;2022-10-17T10:28:34;101791.38;;;23.71;100.00
32181;BME280;19172;51.504;3.894;2022-10-17T10:31:07;101784.59;;;23.84;100.00
32181;BME280;19172;51.504;3.894;2022-10-17T10:33:40;101799.00;;;23.85;100.00
32181;BME280;19172;51.504;3.894;2022-10-17T10:36:13;101795.34;;;23.86;100.00
32181;BME280;19172;51.504;3.894;2022-10-17T10:38:41;101801.38;;;24.17;100.00
32181;BME280;19172;51.504;3.894;2022-10-17T10:41:10;101809.31;;;24.21;100.00
32181;BME280;19172;51.504;3.894;2022-10-17T10:43:50;101825.63;;;24.42;100.00
32181;BME280;19172;51.504;3.894;2022-10-17T10:46:26;101831.75;;;24.47;100.00
32181;BME280;19172;51.504;3.894;2022-10-17T10:49:00;101831.00;;;24.43;100.00
32181;BME280;19172;51.504;3.894;2022-10-17T10:51:41;101840.16;;;24.39;100.00
32181;BME280;19172;51.504;3.894;2022-10-17T10:54:19;101841.72;;;24.45;100.00
32181;BME280;19172;51.504;3.894;2022-10-17T10:56:52;101825.78;;;24.60;100.00
32181;BME280;19172;51.504;3.894;2022-10-17T11:02:29;101832.66;;;24.69;100.00
32181;BME280;19172;51.504;3.894;2022-10-17T11:05:05;101844.81;;;24.57;100.00
32181;BME280;19172;51.504;3.894;2022-10-17T11:08:15;101849.97;;;24.42;100.00
32181;BME280;19172;51.504;3.894;2022-10-17T11:11:10;101843.78;;;24.61;100.00
32181;BME280;19172;51.504;3.894;2022-10-17T11:13:57;101854.84;;;24.77;100.00
32181;BME280;19172;51.504;3.894;2022-10-17T11:16:38;101866.25;;;24.40;100.00
32181;BME280;19172;51.504;3.894;2022-10-17T11:19:10;101874.66;;;24.56;100.00
32181;BME280;19172;51.504;3.894;2022-10-17T11:21:47;101878.53;;;23.76;100.00
32181;BME280;19172;51.504;3.894;2022-10-17T11:24:18;101879.97;;;24.11;100.00
32181;BME280;19172;51.504;3.894;2022-10-17T11:27:00;101873.88;;;24.29;100.00
32181;BME280;19172;51.504;3.894;2022-10-17T11:29:33;101894.41;;;23.85;100.00
32181;BME280;19172;51.504;3.894;2022-10-17T11:32:07;101892.06;;;23.50;100.00
32181;BME280;19172;51.504;3.894;2022-10-17T11:34:45;101900.50;;;24.16;100.00
32181;BME280;19172;51.504;3.894;2022-10-17T11:37:20;101905.19;;;24.10;100.00
32181;BME280;19172;51.504;3.894;2022-10-17T11:40:01;101906.09;;;23.86;100.00
32181;BME280;19172;51.504;3.894;2022-10-17T11:42:35;101906.56;;;24.23;100.00
32181;BME280;19172;51.504;3.894;2022-10-17T11:45:16;101910.44;;;24.39;100.00
32181;BME280;19172;51.504;3.894;2022-10-17T11:48:03;101916.13;;;24.07;100.00
32181;BME280;19172;51.504;3.894;2022-10-17T11:50:38;101923.66;;;23.48;100.00
32181;BME280;19172;51.504;3.894;2022-10-17T11:53:45;101929.44;;;23.62;100.00
32181;BME280;19172;51.504;3.894;2022-10-17T11:56:24;101933.50;;;24.00;100.00
32181;BME280;19172;51.504;3.894;2022-10-17T12:01:43;101929.19;;;24.20;100.00
32181;BME280;19172;51.504;3.894;2022-10-17T12:10:32;101940.09;;;24.65;100.00
32181;BME280;19172;51.504;3.894;2022-10-17T12:21:52;101967.94;;;24.19;100.00
32181;BME280;19172;51.504;3.894;2022-10-17T12:24:37;101959.38;;;24.56;100.00
32181;BME280;19172;51.504;3.894;2022-10-17T12:27:35;101969.06;;;24.62;100.00
32181;BME280;19172;51.504;3.894;2022-10-17T12:32:34;101966.28;;;24.63;100.00
32181;BME280;19172;51.504;3.894;2022-10-17T12:35:23;101963.69;;;24.85;100.00
32181;BME280;19172;51.504;3.894;2022-10-17T12:43:02;101976.97;;;24.91;100.00
32181;BME280;19172;51.504;3.894;2022-10-17T12:45:57;101982.03;;;24.52;100.00
32181;BME280;19172;51.504;3.894;2022-10-17T12:53:59;101993.78;;;24.28;100.00
32181;BME280;19172;51.504;3.894;2022-10-17T12:56:44;101999.34;;;23.15;100.00
32181;BME280;19172;51.504;3.894;2022-10-17T12:59:20;101994.56;;;24.05;100.00
32181;BME280;19172;51.504;3.894;2022-10-17T13:01:53;102000.16;;;24.50;100.00
32181;BME280;19172;51.504;3.894;2022-10-17T13:04:23;102005.75;;;24.69;100.00
32181;BME280;19172;51.504;3.894;2022-10-17T13:06:55;101998.50;;;24.94;100.00
32181;BME280;19172;51.504;3.894;2022-10-17T13:09:34;101997.13;;;24.59;100.00
32181;BME280;19172;51.504;3.894;2022-10-17T13:12:11;102002.78;;;24.52;100.00
32181;BME280;19172;51.504;3.894;2022-10-17T13:14:41;102002.94;;;24.72;100.00
32181;BME280;19172;51.504;3.894;2022-10-17T13:17:39;102002.97;;;24.95;100.00
32181;BME280;19172;51.504;3.894;2022-10-17T13:20:21;101998.47;;;24.71;100.00
32181;BME280;19172;51.504;3.894;2022-10-17T13:22:55;101995.06;;;24.66;100.00
32181;BME280;19172;51.504;3.894;2022-10-17T13:25:25;101987.97;;;24.87;100.00
32181;BME280;19172;51.504;3.894;2022-10-17T13:28:06;101996.34;;;25.25;100.00
32181;BME280;19172;51.504;3.894;2022-10-17T13:30:37;101991.53;;;25.10;99.47
32181;BME280;19172;51.504;3.894;2022-10-17T13:33:29;101998.69;;;25.11;98.48
32181;BME280;19172;51.504;3.894;2022-10-17T13:35:59;102002.25;;;25.13;98.00
32181;BME280;19172;51.504;3.894;2022-10-17T13:38:31;102011.78;;;25.23;98.75
32181;BME280;19172;51.504;3.894;2022-10-17T13:41:02;102014.94;;;24.65;98.34
32181;BME280;19172;51.504;3.894;2022-10-17T13:43:51;102029.81;;;25.01;100.00
32181;BME280;19172;51.504;3.894;2022-10-17T13:46:39;102027.94;;;25.25;100.00
32181;BME280;19172;51.504;3.894;2022-10-17T13:49:15;102031.66;;;25.22;100.00
32181;BME280;19172;51.504;3.894;2022-10-17T13:51:47;102034.75;;;25.35;100.00
32181;BME280;19172;51.504;3.894;2022-10-17T13:54:18;102034.28;;;25.69;100.00
32181;BME280;19172;51.504;3.894;2022-10-17T13:56:54;102031.91;;;25.83;99.14
32181;BME280;19172;51.504;3.894;2022-10-17T13:59:29;102032.16;;;25.55;97.07
32181;BME280;19172;51.504;3.894;2022-10-17T14:02:00;102040.97;;;25.15;96.54
32181;BME280;19172;51.504;3.894;2022-10-17T14:04:28;102034.41;;;25.21;96.93
32181;BME280;19172;51.504;3.894;2022-10-17T14:10:39;102042.75;;;25.61;92.32
32181;BME280;19172;51.504;3.894;2022-10-17T14:13:22;102045.88;;;25.51;93.37
32181;BME280;19172;51.504;3.894;2022-10-17T14:15:53;102048.63;;;24.56;96.84
32181;BME280;19172;51.504;3.894;2022-10-17T14:18:39;102057.69;;;24.54;95.94
32181;BME280;19172;51.504;3.894;2022-10-17T14:21:21;102053.34;;;24.50;95.69
32181;BME280;19172;51.504;3.894;2022-10-17T14:24:25;102061.69;;;24.44;94.86
32181;BME280;19172;51.504;3.894;2022-10-17T14:26:56;102068.72;;;24.23;93.94
32181;BME280;19172;51.504;3.894;2022-10-17T14:29:30;102064.63;;;24.11;94.28
32181;BME280;19172;51.504;3.894;2022-10-17T14:32:01;102061.06;;;24.36;95.90
32181;BME280;19172;51.504;3.894;2022-10-17T14:34:36;102056.53;;;24.61;95.75
32181;BME280;19172;51.504;3.894;2022-10-17T14:37:23;102053.09;;;24.82;94.95
32181;BME280;19172;51.504;3.894;2022-10-17T14:39:54;102056.59;;;24.84;92.26
32181;BME280;19172;51.504;3.894;2022-10-17T14:42:25;102053.06;;;24.33;91.63
32181;BME280;19172;51.504;3.894;2022-10-17T14:45:02;102054.72;;;25.09;92.93
32181;BME280;19172;51.504;3.894;2022-10-17T14:47:32;102054.13;;;25.24;90.87
32181;BME280;19172;51.504;3.894;2022-10-17T14:50:20;102065.31;;;24.92;90.21
32181;BME280;19172;51.504;3.894;2022-10-17T14:52:59;102064.59;;;25.34;89.77
32181;BME280;19172;51.504;3.894;2022-10-17T14:55:30;102066.97;;;25.43;88.73
32181;BME280;19172;51.504;3.894;2022-10-17T14:57:58;102075.84;;;25.46;87.63